Time;durP1;ratioP1;P1;durP2;ratioP2;P2;SDS_P1;SDS_P2;PMS_P1;PMS_P2;Temp;Humidity;BMP_temperature;BMP_pressure;BME280_temperature;BME280_humidity;BME280_pressure;Samples;Min_cycle;Max_cycle;Signal;HPM_P1;HPM_P2
2024/01/15 00:00:39;;;;;;;83.63;35.25;;;;;;;-2.41;82.80;96915.91;5027564;28;20116;-71
2024/01/15 00:03:04;;;;;;;80.40;37.28;;;;;;;-2.30;82.10;96929.34;4991628;28;20482;-71
2024/01/15 00:05:30;;;;;;;85.20;33.03;;;;;;;-2.42;81.88;96898.47;5017633;28;20040;-71
2024/01/15 00:07:55;;;;;;;86.47;32.95;;;;;;;-2.35;82.09;96901.94;5020392;28;20026;-71
2024/01/15 00:10:21;;;;;;;88.78;33.28;;;;;;;-2.37;82.37;96912.69;5022015;28;20034;-71
2024/01/15 00:12:46;;;;;;;81.55;32.97;;;;;;;-2.31;82.27;96911.91;5014242;28;20033;-69
2024/01/15 00:15:12;;;;;;;80.90;34.20;;;;;;;-2.33;82.10;96902.56;5031293;28;20567;-70
2024/01/15 00:17:37;;;;;;;82.45;40.40;;;;;;;-2.14;82.33;96899.19;5022529;28;20486;-71
2024/01/15 00:20:03;;;;;;;83.10;32.35;;;;;;;-2.31;82.47;96884.75;5011991;28;20069;-71
2024/01/15 00:22:29;;;;;;;86.88;33.13;;;;;;;-2.26;82.09;96908.66;5012259;28;20376;-71
2024/01/15 00:24:54;;;;;;;88.45;46.45;;;;;;;-2.29;82.70;96922.25;5015831;28;20049;-70
2024/01/15 00:27:20;;;;;;;81.13;32.08;;;;;;;-2.43;82.34;96907.38;5025164;28;20166;-72
2024/01/15 00:29:45;;;;;;;83.32;40.03;;;;;;;-2.43;82.60;96896.84;5018466;28;20030;-72
2024/01/15 00:32:11;;;;;;;99.32;35.70;;;;;;;-2.58;83.54;96898.78;5004962;28;20486;-72
2024/01/15 00:34:36;;;;;;;92.30;40.72;;;;;;;-2.59;83.24;96866.34;5028045;28;20080;-72
2024/01/15 00:37:02;;;;;;;85.07;32.88;;;;;;;-2.51;83.14;96878.53;4999703;28;20210;-72
2024/01/15 00:39:28;;;;;;;96.70;42.00;;;;;;;-2.65;83.14;96855.78;5016963;28;20040;-72
2024/01/15 00:41:53;;;;;;;87.43;33.53;;;;;;;-2.55;83.26;96882.59;5026990;28;20474;-73
2024/01/15 00:44:19;;;;;;;90.50;39.25;;;;;;;-2.42;83.60;96882.66;5023511;28;20037;-72
2024/01/15 00:46:47;;;;;;;93.28;34.67;;;;;;;-2.50;83.52;96874.91;5027145;28;20026;-72
2024/01/15 00:49:13;;;;;;;84.50;32.33;;;;;;;-2.45;83.39;96883.84;5015271;28;20041;-72
2024/01/15 00:51:39;;;;;;;95.80;35.53;;;;;;;-2.43;83.59;96891.56;5024801;28;20037;-73
2024/01/15 00:54:05;;;;;;;95.57;37.42;;;;;;;-2.42;83.50;96890.56;5013311;28;20033;-71
2024/01/15 00:56:31;;;;;;;86.95;33.28;;;;;;;-2.57;83.92;96900.41;5019713;28;20662;-71
2024/01/15 00:58:56;;;;;;;97.88;36.20;;;;;;;-2.61;83.90;96888.66;5025002;28;20045;-72
2024/01/15 01:01:22;;;;;;;96.70;37.80;;;;;;;-2.47;84.02;96895.59;5015810;28;20076;-71
2024/01/15 01:03:47;;;;;;;85.25;32.80;;;;;;;-2.64;83.67;96868.78;5021563;28;20061;-74
2024/01/15 01:06:13;;;;;;;86.05;39.63;;;;;;;-2.46;83.83;96887.50;5014856;28;20022;-71
2024/01/15 01:08:39;;;;;;;86.13;32.25;;;;;;;-2.71;83.23;96880.28;5014917;28;20040;-71
2024/01/15 01:11:06;;;;;;;95.13;36.63;;;;;;;-2.69;84.18;96886.16;5018558;28;20037;-72
2024/01/15 01:13:31;;;;;;;96.10;36.55;;;;;;;-2.49;83.91;96877.34;5018281;28;20137;-73
2024/01/15 01:15:57;;;;;;;90.65;35.60;;;;;;;-2.59;84.01;96855.81;5005356;28;20069;-73
2024/01/15 01:18:23;;;;;;;88.93;39.45;;;;;;;-2.37;83.85;96877.59;5023497;28;20070;-71
2024/01/15 01:20:49;;;;;;;84.93;32.10;;;;;;;-2.46;83.91;96868.25;5024996;28;20022;-71
2024/01/15 01:23:14;;;;;;;86.45;32.65;;;;;;;-2.53;83.54;96870.03;5006147;28;20045;-71
2024/01/15 01:25:40;;;;;;;88.80;34.58;;;;;;;-2.60;84.05;96863.91;5016892;28;20038;-73
2024/01/15 01:28:05;;;;;;;85.63;39.53;;;;;;;-2.58;84.12;96836.34;5029993;28;20037;-72
2024/01/15 01:30:31;;;;;;;83.15;31.58;;;;;;;-2.83;84.24;96849.22;5022310;28;20068;-72
2024/01/15 01:32:56;;;;;;;94.70;37.90;;;;;;;-2.67;84.53;96850.72;5013636;28;20504;-72
2024/01/15 01:35:22;;;;;;;77.90;31.67;;;;;;;-2.76;84.72;96864.22;5025855;28;20103;-73
2024/01/15 01:37:48;;;;;;;88.20;37.17;;;;;;;-2.59;84.82;96861.06;5017287;28;20397;-72
2024/01/15 01:40:13;;;;;;;77.38;31.20;;;;;;;-2.51;84.37;96862.72;5020527;28;20029;-71
2024/01/15 01:42:39;;;;;;;89.28;32.03;;;;;;;-2.45;84.22;96872.50;4995201;28;20129;-72
2024/01/15 01:45:05;;;;;;;83.03;32.55;;;;;;;-2.61;84.38;96880.75;5008847;28;20029;-73
2024/01/15 01:47:30;;;;;;;79.50;35.92;;;;;;;-2.47;84.29;96879.78;5011320;28;20478;-73
2024/01/15 01:49:56;;;;;;;74.35;31.42;;;;;;;-2.60;83.80;96843.66;5011665;28;20052;-73
2024/01/15 01:52:21;;;;;;;87.68;37.78;;;;;;;-2.26;83.92;96887.59;5014050;28;20041;-73
2024/01/15 01:54:47;;;;;;;79.47;31.10;;;;;;;-2.33;83.95;96870.91;5015859;28;20109;-72
2024/01/15 01:57:13;;;;;;;79.20;30.77;;;;;;;-2.26;83.75;96866.50;5020765;28;20116;-73
2024/01/15 01:59:39;;;;;;;75.25;31.30;;;;;;;-2.23;83.98;96874.00;4988109;28;20041;-73
2024/01/15 02:02:06;;;;;;;71.78;32.05;;;;;;;-2.14;83.20;96880.75;5009799;28;20033;-71
2024/01/15 02:04:32;;;;;;;77.80;32.90;;;;;;;-2.12;83.31;96876.06;5012326;28;20065;-71
2024/01/15 02:06:59;;;;;;;77.68;36.65;;;;;;;-2.20;83.18;96860.44;5009809;28;20065;-71
2024/01/15 02:09:24;;;;;;;76.18;30.52;;;;;;;-2.35;83.30;96846.59;5021481;28;20124;-71
2024/01/15 02:11:50;;;;;;;77.43;31.80;;;;;;;-2.41;83.23;96857.94;5020395;28;20048;-71
2024/01/15 02:14:15;;;;;;;71.45;31.52;;;;;;;-2.28;83.41;96863.25;4999454;28;20498;-71
2024/01/15 02:16:41;;;;;;;74.35;34.83;;;;;;;-2.27;83.24;96867.53;5004101;28;20029;-71
2024/01/15 02:19:06;;;;;;;74.60;35.63;;;;;;;-2.21;83.08;96877.25;5017122;28;20483;-71
2024/01/15 02:21:32;;;;;;;76.82;29.15;;;;;;;-2.41;82.98;96860.56;5017667;28;20100;-70
2024/01/15 02:23:58;;;;;;;72.40;29.88;;;;;;;-2.41;83.47;96852.66;5015130;28;20141;-71
2024/01/15 02:26:23;;;;;;;75.55;31.15;;;;;;;-2.41;83.39;96871.09;5017401;28;20096;-71
2024/01/15 02:28:49;;;;;;;73.45;28.50;;;;;;;-2.47;83.53;96853.41;5017816;28;20025;-70
2024/01/15 02:31:15;;;;;;;70.53;29.02;;;;;;;-2.35;83.56;96865.03;4996981;28;20033;-71
2024/01/15 02:33:42;;;;;;;77.80;32.60;;;;;;;-2.35;83.73;96862.41;5021821;28;20482;-70
2024/01/15 02:36:07;;;;;;;70.97;28.83;;;;;;;-2.80;83.79;96817.19;5019313;28;20029;-72
2024/01/15 02:38:33;;;;;;;67.40;27.70;;;;;;;-2.42;83.74;96866.84;4994156;28;20549;-71
2024/01/15 02:40:58;;;;;;;66.13;28.05;;;;;;;-2.45;83.55;96864.59;5023530;28;20037;-70
2024/01/15 02:43:24;;;;;;;71.47;29.50;;;;;;;-2.52;84.07;96855.84;5009403;28;20050;-70
2024/01/15 02:45:49;;;;;;;74.15;38.55;;;;;;;-2.53;83.87;96849.78;5018296;28;20038;-70
2024/01/15 02:48:14;;;;;;;71.25;29.70;;;;;;;-2.56;84.27;96880.94;5019323;28;20030;-71
2024/01/15 02:50:40;;;;;;;68.50;34.50;;;;;;;-2.53;83.77;96877.94;4995497;28;20037;-71
2024/01/15 02:53:05;;;;;;;69.18;33.30;;;;;;;-2.49;83.55;96871.25;5017341;28;20393;-70
2024/01/15 02:55:30;;;;;;;61.40;25.70;;;;;;;-2.54;83.62;96877.13;5017779;28;20117;-70
2024/01/15 02:57:56;;;;;;;68.90;37.78;;;;;;;-2.48;83.94;96888.72;5020839;28;20030;-69
2024/01/15 03:00:21;;;;;;;61.25;31.95;;;;;;;-2.51;83.88;96889.09;5039132;28;20033;-71
2024/01/15 03:02:48;;;;;;;62.25;27.23;;;;;;;-2.51;83.71;96883.81;5003333;28;20034;-70
2024/01/15 03:05:13;;;;;;;68.45;34.38;;;;;;;-2.47;83.68;96869.22;5019721;28;20476;-71
2024/01/15 03:07:38;;;;;;;56.10;25.95;;;;;;;-2.63;83.73;96861.66;5020373;28;20101;-71
2024/01/15 03:10:05;;;;;;;57.03;27.42;;;;;;;-2.56;83.54;96850.16;5020225;28;20044;-71
2024/01/15 03:12:30;;;;;;;53.10;30.13;;;;;;;-2.46;83.61;96841.88;5020767;28;20041;-70
2024/01/15 03:14:57;;;;;;;54.15;24.58;;;;;;;-2.57;83.54;96837.19;5017812;28;20405;-71
2024/01/15 03:17:22;;;;;;;62.13;26.70;;;;;;;-2.70;83.64;96810.75;5015682;28;20026;-71
2024/01/15 03:19:49;;;;;;;59.00;33.63;;;;;;;-2.46;83.48;96828.72;5017045;28;20037;-71
2024/01/15 03:22:15;;;;;;;52.63;29.27;;;;;;;-2.54;82.93;96831.50;5021673;28;20060;-71
2024/01/15 03:24:40;;;;;;;56.05;23.88;;;;;;;-2.56;83.58;96844.06;5011553;28;20037;-70
2024/01/15 03:27:06;;;;;;;50.03;23.92;;;;;;;-2.58;83.34;96830.28;5020404;28;20100;-70
2024/01/15 03:29:31;;;;;;;54.05;25.60;;;;;;;-2.49;83.17;96851.00;5021227;28;20401;-70
2024/01/15 03:31:56;;;;;;;56.78;23.83;;;;;;;-2.53;83.67;96838.41;5022715;28;20045;-71
2024/01/15 03:34:22;;;;;;;58.45;26.42;;;;;;;-2.54;83.56;96848.13;5020371;28;20040;-71
2024/01/15 03:36:47;;;;;;;52.70;23.38;;;;;;;-2.48;83.14;96836.00;5013480;28;20088;-72
2024/01/15 03:39:12;;;;;;;48.85;23.63;;;;;;;-2.39;83.39;96821.63;5023106;28;20041;-72
2024/01/15 03:41:38;;;;;;;49.30;24.52;;;;;;;-2.34;83.16;96827.13;5021160;28;20028;-71
2024/01/15 03:44:03;;;;;;;49.10;25.17;;;;;;;-2.46;83.40;96802.34;5019850;28;20616;-71
2024/01/15 03:46:29;;;;;;;48.13;23.50;;;;;;;-2.31;83.34;96816.22;5007316;28;20023;-71
2024/01/15 03:48:54;;;;;;;52.35;23.02;;;;;;;-2.41;83.18;96827.13;5017110;28;20069;-69
2024/01/15 03:51:20;;;;;;;50.28;23.70;;;;;;;-2.34;83.25;96821.88;4989504;28;20129;-69
2024/01/15 03:53:45;;;;;;;50.25;26.02;;;;;;;-2.19;83.40;96819.88;5025340;28;20033;-70
2024/01/15 03:56:11;;;;;;;50.55;24.05;;;;;;;-2.48;82.85;96799.94;5014392;28;20382;-73
2024/01/15 03:58:36;;;;;;;45.08;22.65;;;;;;;-2.36;83.23;96810.72;5013656;28;20045;-72
2024/01/15 04:01:02;;;;;;;48.08;23.30;;;;;;;-2.18;82.85;96826.78;4996126;28;20105;-72
2024/01/15 04:03:27;;;;;;;45.30;23.40;;;;;;;-2.10;82.53;96839.78;4996029;28;20486;-72
2024/01/15 04:05:53;;;;;;;47.65;22.73;;;;;;;-2.10;82.58;96839.78;5028244;28;20026;-73
2024/01/15 04:08:18;;;;;;;47.50;22.65;;;;;;;-2.18;82.54;96845.25;5018191;28;20064;-72
2024/01/15 04:10:43;;;;;;;53.58;25.05;;;;;;;-2.10;82.63;96842.41;5026273;28;20018;-71
2024/01/15 04:13:09;;;;;;;47.40;22.70;;;;;;;-2.06;82.66;96856.03;5025359;28;20506;-72
2024/01/15 04:15:34;;;;;;;46.65;23.10;;;;;;;-2.26;82.67;96819.84;5023232;28;20499;-71
2024/01/15 04:18:01;;;;;;;46.20;22.65;;;;;;;-2.29;82.45;96830.00;5021276;28;20026;-70
2024/01/15 04:20:26;;;;;;;47.22;23.85;;;;;;;-2.09;82.71;96836.13;5028753;28;20108;-71
2024/01/15 04:22:52;;;;;;;42.35;21.70;;;;;;;-2.19;82.72;96825.16;5026795;28;20041;-71
2024/01/15 04:25:17;;;;;;;50.97;25.63;;;;;;;-2.17;82.19;96809.97;5005600;28;20104;-71
2024/01/15 04:27:42;;;;;;;53.55;24.55;;;;;;;-2.06;82.85;96819.94;5025434;28;20040;-70
2024/01/15 04:30:08;;;;;;;54.45;26.23;;;;;;;-2.15;82.59;96811.38;5019255;28;20075;-72
2024/01/15 04:32:33;;;;;;;46.03;28.63;;;;;;;-1.94;82.41;96813.06;5018078;28;20060;-72
2024/01/15 04:34:59;;;;;;;49.63;24.27;;;;;;;-2.18;83.18;96810.97;5026881;28;20033;-73
2024/01/15 04:37:24;;;;;;;50.35;22.33;;;;;;;-2.26;83.41;96792.69;5023861;28;20036;-73
2024/01/15 04:39:52;;;;;;;48.65;22.58;;;;;;;-2.24;83.06;96794.09;5013869;28;20049;-71
2024/01/15 04:42:18;;;;;;;53.90;24.98;;;;;;;-2.06;82.75;96809.38;5016665;28;20041;-72
2024/01/15 04:44:43;;;;;;;47.15;27.23;;;;;;;-2.17;83.41;96775.69;5025218;28;20033;-72
2024/01/15 04:47:08;;;;;;;49.10;23.65;;;;;;;-2.00;82.87;96792.75;5019380;28;20517;-72
2024/01/15 04:49:34;;;;;;;48.20;29.50;;;;;;;-2.02;83.34;96783.41;5024018;28;20025;-74
2024/01/15 04:51:59;;;;;;;50.50;23.58;;;;;;;-2.05;83.38;96811.00;5019651;28;20038;-74
2024/01/15 04:54:25;;;;;;;46.40;26.63;;;;;;;-1.90;83.28;96816.91;4994818;28;20030;-74
2024/01/15 04:56:50;;;;;;;50.88;24.70;;;;;;;-1.97;83.44;96815.28;5018982;28;20083;-73
2024/01/15 04:59:15;;;;;;;48.92;25.50;;;;;;;-1.93;83.89;96819.13;5013812;28;20514;-72
2024/01/15 05:01:41;;;;;;;51.25;31.08;;;;;;;-1.80;83.65;96809.44;5007565;28;20037;-70
2024/01/15 05:04:06;;;;;;;53.40;23.48;;;;;;;-2.03;83.67;96800.25;5019366;28;20031;-71
2024/01/15 05:06:32;;;;;;;52.42;23.15;;;;;;;-1.97;84.44;96812.63;5022166;28;20038;-72
2024/01/15 05:08:57;;;;;;;49.17;31.35;;;;;;;-1.69;84.10;96808.00;5008905;28;20398;-71
2024/01/15 05:11:23;;;;;;;49.53;22.88;;;;;;;-1.96;84.14;96799.25;5035222;28;20045;-71
2024/01/15 05:13:48;;;;;;;50.63;23.75;;;;;;;-1.84;84.23;96805.56;5003067;28;20025;-73
2024/01/15 05:16:13;;;;;;;46.42;22.80;;;;;;;-1.83;84.51;96807.19;5016189;28;20056;-72
2024/01/15 05:18:39;;;;;;;57.90;33.63;;;;;;;-1.80;84.13;96803.34;5016643;28;20519;-72
2024/01/15 05:21:04;;;;;;;66.78;45.45;;;;;;;-1.73;84.18;96794.44;5031251;28;20052;-71
2024/01/15 05:23:31;;;;;;;55.25;28.75;;;;;;;-1.79;83.82;96795.22;5013984;28;20066;-71
2024/01/15 05:25:57;;;;;;;52.72;24.48;;;;;;;-1.83;83.77;96783.44;5012149;28;20367;-72
2024/01/15 05:28:22;;;;;;;47.30;24.50;;;;;;;-1.68;83.47;96807.81;5024678;28;20429;-70
2024/01/15 05:30:47;;;;;;;49.75;24.08;;;;;;;-1.76;83.79;96794.00;5020312;28;20508;-70
2024/01/15 05:33:13;;;;;;;52.40;31.63;;;;;;;-1.72;84.07;96811.88;5024838;28;20476;-70
2024/01/15 05:35:39;;;;;;;48.25;22.55;;;;;;;-1.77;83.55;96824.84;5001655;28;20184;-71
2024/01/15 05:38:04;;;;;;;46.13;21.45;;;;;;;-1.90;84.45;96824.81;5014009;28;20026;-71
2024/01/15 05:40:29;;;;;;;53.20;24.20;;;;;;;-1.85;84.40;96817.13;5005627;28;20163;-72
2024/01/15 05:42:55;;;;;;;55.22;27.50;;;;;;;-1.98;84.40;96800.47;5011150;28;20022;-72
2024/01/15 05:45:20;;;;;;;50.60;26.42;;;;;;;-1.88;84.91;96816.72;4986865;28;20409;-70
2024/01/15 05:47:45;;;;;;;50.33;32.05;;;;;;;-1.64;84.47;96811.69;5016562;28;20025;-72
2024/01/15 05:50:11;;;;;;;50.35;24.40;;;;;;;-1.87;84.78;96808.63;5016254;28;20038;-71
2024/01/15 05:52:36;;;;;;;53.83;30.65;;;;;;;-1.84;84.66;96802.91;5023543;28;20041;-70
2024/01/15 05:55:03;;;;;;;51.53;28.85;;;;;;;-1.83;84.91;96803.72;5017514;28;20042;-71
2024/01/15 05:57:28;;;;;;;45.88;26.00;;;;;;;-1.81;84.74;96799.06;5023677;28;20025;-71
2024/01/15 05:59:53;;;;;;;48.30;26.95;;;;;;;-1.89;85.01;96800.06;5014059;28;20034;-71
2024/01/15 06:02:19;;;;;;;53.35;26.75;;;;;;;-1.92;84.92;96800.47;5030624;28;20551;-71
2024/01/15 06:04:44;;;;;;;49.10;23.88;;;;;;;-2.09;85.37;96783.41;5016450;28;20030;-72
2024/01/15 06:07:10;;;;;;;50.10;31.73;;;;;;;-1.82;85.16;96782.41;5024782;28;20029;-72
2024/01/15 06:09:35;;;;;;;48.33;23.02;;;;;;;-2.09;85.27;96783.41;5007326;28;20117;-72
2024/01/15 06:12:00;;;;;;;45.25;23.02;;;;;;;-1.97;85.65;96788.91;5005162;28;20088;-72
2024/01/15 06:14:26;;;;;;;44.00;22.52;;;;;;;-1.96;85.83;96788.69;5012596;28;20124;-72
2024/01/15 06:16:52;;;;;;;45.63;23.38;;;;;;;-1.82;85.54;96800.09;5022051;28;20021;-72
2024/01/15 06:19:17;;;;;;;43.13;20.88;;;;;;;-2.04;85.40;96778.34;5017157;28;20061;-72
2024/01/15 06:21:43;;;;;;;47.17;21.35;;;;;;;-1.87;85.15;96798.06;5019739;28;20049;-71
2024/01/15 06:24:09;;;;;;;45.90;29.27;;;;;;;-1.84;85.57;96775.72;5024787;28;20093;-72
2024/01/15 06:26:35;;;;;;;46.72;28.08;;;;;;;-1.73;85.08;96790.97;5014864;28;20031;-72
2024/01/15 06:29:00;;;;;;;45.53;23.63;;;;;;;-2.08;85.49;96763.94;5000747;28;20061;-73
2024/01/15 06:31:25;;;;;;;51.35;26.20;;;;;;;-1.90;86.12;96798.44;5014978;28;20104;-72
2024/01/15 06:33:51;;;;;;;48.53;22.33;;;;;;;-2.10;86.48;96787.03;5016299;28;20038;-71
2024/01/15 06:36:16;;;;;;;58.00;33.55;;;;;;;-1.82;86.50;96776.34;5008762;28;20030;-72
2024/01/15 06:38:44;;;;;;;49.03;25.10;;;;;;;-1.88;87.15;96795.59;5019514;28;20486;-72
2024/01/15 06:41:09;;;;;;;52.83;24.70;;;;;;;-1.88;87.01;96790.31;5003617;28;20021;-72
2024/01/15 06:43:35;;;;;;;57.17;31.73;;;;;;;-1.75;86.79;96796.44;5013374;28;20031;-72
2024/01/15 06:46:00;;;;;;;53.55;23.80;;;;;;;-1.90;86.71;96803.72;5023288;28;20760;-71
2024/01/15 06:48:25;;;;;;;57.05;26.83;;;;;;;-1.96;86.61;96759.66;5015365;28;20044;-73
2024/01/15 06:50:51;;;;;;;55.95;25.13;;;;;;;-1.86;86.76;96791.75;5009659;28;20105;-70
2024/01/15 06:53:16;;;;;;;46.00;24.55;;;;;;;-1.79;86.35;96799.66;5011985;28;20478;-71
2024/01/15 06:55:42;;;;;;;50.90;31.10;;;;;;;-1.72;86.16;96796.03;5020443;28;20022;-70
2024/01/15 06:58:07;;;;;;;51.28;24.42;;;;;;;-1.81;86.65;96813.06;5020930;28;20056;-72
2024/01/15 07:00:33;;;;;;;52.50;24.55;;;;;;;-1.77;86.78;96797.63;5023239;28;20041;-72
2024/01/15 07:02:58;;;;;;;47.10;23.50;;;;;;;-1.91;86.02;96791.53;5020003;28;20092;-71
2024/01/15 07:05:24;;;;;;;53.40;24.25;;;;;;;-1.91;86.14;96786.25;5001921;28;20034;-74
2024/01/15 07:07:49;;;;;;;46.83;27.17;;;;;;;-1.60;86.38;96810.25;5018404;28;20550;-74
2024/01/15 07:10:15;;;;;;;43.25;28.75;;;;;;;-1.62;85.61;96807.00;5021198;28;20033;-72
2024/01/15 07:12:43;;;;;;;46.53;21.98;;;;;;;-1.70;85.87;96817.75;5012515;28;20030;-72
2024/01/15 07:15:09;;;;;;;60.42;30.30;;;;;;;-1.83;85.30;96803.72;5003680;28;20033;-72
2024/01/15 07:17:35;;;;;;;45.10;24.13;;;;;;;-1.82;85.83;96798.25;5010988;28;20022;-73
2024/01/15 07:20:00;;;;;;;46.42;28.10;;;;;;;-1.50;85.14;96820.41;5020982;28;20521;-72
2024/01/15 07:22:26;;;;;;;41.47;20.77;;;;;;;-1.79;85.19;96792.56;5027737;28;20509;-72
2024/01/15 07:24:51;;;;;;;43.00;20.35;;;;;;;-1.60;84.90;96820.81;5030052;28;20057;-71
2024/01/15 07:27:17;;;;;;;42.83;28.08;;;;;;;-1.40;84.87;96821.63;5026417;28;20037;-72
2024/01/15 07:29:42;;;;;;;43.20;27.92;;;;;;;-1.49;84.50;96800.91;5015388;28;20023;-71
2024/01/15 07:32:08;;;;;;;44.65;20.08;;;;;;;-1.59;84.95;96819.78;5019903;28;20536;-72
2024/01/15 07:34:33;;;;;;;38.92;22.88;;;;;;;-1.55;84.64;96818.38;5016325;28;20030;-72
2024/01/15 07:36:59;;;;;;;41.92;22.23;;;;;;;-1.54;84.16;96821.84;5016031;28;20544;-72
2024/01/15 07:39:25;;;;;;;40.70;23.63;;;;;;;-1.44;84.33;96820.41;5024719;28;20075;-72
2024/01/15 07:41:51;;;;;;;42.55;25.45;;;;;;;-1.52;84.68;96815.31;5007782;28;20406;-72
2024/01/15 07:44:16;;;;;;;38.53;27.38;;;;;;;-1.41;84.19;96814.72;5002368;28;20021;-72
2024/01/15 07:46:46;;;;;;;44.25;22.25;;;;;;;-1.38;84.02;96813.50;5026667;28;20034;-72
2024/01/15 07:49:11;;;;;;;49.67;24.15;;;;;;;-1.42;83.98;96818.38;5021017;28;20029;-72
2024/01/15 07:51:36;;;;;;;43.85;22.75;;;;;;;-1.47;84.10;96815.53;5004735;28;20045;-72
2024/01/15 07:54:02;;;;;;;48.65;25.02;;;;;;;-1.35;83.97;96828.13;5004767;28;20523;-72
2024/01/15 07:56:27;;;;;;;47.15;23.70;;;;;;;-1.33;84.70;96840.09;5013274;28;20034;-73
2024/01/15 07:58:53;;;;;;;47.55;29.15;;;;;;;-1.47;84.31;96823.44;5026219;28;20497;-74
2024/01/15 08:01:18;;;;;;;47.60;23.27;;;;;;;-1.42;84.04;96844.78;4990857;28;20033;-70
2024/01/15 08:03:44;;;;;;;47.05;23.23;;;;;;;-1.36;83.89;96837.88;5029861;28;20029;-72
2024/01/15 08:06:09;;;;;;;44.22;28.77;;;;;;;-1.30;83.61;96836.22;5020210;28;20133;-72
2024/01/15 08:08:35;;;;;;;49.05;30.33;;;;;;;-1.17;83.33;96836.25;5009481;28;20025;-72
2024/01/15 08:11:01;;;;;;;46.30;30.00;;;;;;;-1.09;83.46;96836.84;5028400;28;20065;-72
2024/01/15 08:13:26;;;;;;;51.05;24.48;;;;;;;-1.17;83.16;96837.06;5022567;28;20057;-72
2024/01/15 08:15:52;;;;;;;44.00;23.67;;;;;;;-1.24;83.56;96830.16;5024090;28;20046;-72
2024/01/15 08:18:17;;;;;;;44.22;22.73;;;;;;;-1.22;84.09;96838.69;5015953;28;20033;-72
2024/01/15 08:20:42;;;;;;;47.80;31.55;;;;;;;-1.07;83.37;96840.09;5005368;28;20392;-72
2024/01/15 08:23:08;;;;;;;47.15;30.00;;;;;;;-1.01;83.57;96849.03;5018298;28;20018;-72
2024/01/15 08:25:34;;;;;;;46.22;29.67;;;;;;;-0.93;83.46;96854.09;5022753;28;20378;-72
2024/01/15 08:28:00;;;;;;;43.72;22.88;;;;;;;-1.17;83.28;96846.81;5029143;28;20037;-72
2024/01/15 08:30:27;;;;;;;49.28;25.10;;;;;;;-1.18;83.33;96839.91;4998681;28;20034;-72
2024/01/15 08:32:53;;;;;;;43.63;28.48;;;;;;;-0.95;82.88;96850.84;5008955;28;20033;-73
2024/01/15 08:35:22;;;;;;;40.53;22.40;;;;;;;-1.06;83.11;96838.25;5007458;28;20033;-72
2024/01/15 08:37:50;;;;;;;42.22;27.73;;;;;;;-1.06;82.89;96828.53;5022867;28;20034;-72
2024/01/15 08:40:16;;;;;;;41.28;22.55;;;;;;;-1.18;83.67;96835.44;5001303;28;20042;-72
2024/01/15 08:42:42;;;;;;;43.65;21.58;;;;;;;-1.20;82.96;96820.81;5004357;28;20048;-72
2024/01/15 08:45:08;;;;;;;40.03;20.92;;;;;;;-1.17;83.25;96823.88;5011250;28;20540;-72
2024/01/15 08:47:34;;;;;;;44.00;27.08;;;;;;;-1.18;83.15;96802.91;5012269;28;20030;-72
2024/01/15 08:49:59;;;;;;;40.65;26.52;;;;;;;-1.15;82.99;96802.53;5029130;28;20129;-72
2024/01/15 08:52:25;;;;;;;37.03;26.67;;;;;;;-1.03;83.10;96811.44;5022940;28;20029;-72
2024/01/15 08:54:50;;;;;;;42.97;22.60;;;;;;;-1.11;82.65;96819.56;5020640;28;20054;-73
2024/01/15 08:57:16;;;;;;;38.22;22.35;;;;;;;-1.01;82.76;96820.78;5020113;28;20034;-73
2024/01/15 08:59:42;;;;;;;39.72;21.55;;;;;;;-1.29;82.84;96771.88;5021391;28;20545;-72
2024/01/15 09:02:07;;;;;;;42.63;22.33;;;;;;;-0.96;82.32;96817.53;5026105;28;20030;-72
2024/01/15 09:04:33;;;;;;;37.45;24.90;;;;;;;-0.87;82.49;96819.75;5008575;28;20117;-73
2024/01/15 09:06:58;;;;;;;36.75;25.15;;;;;;;-0.76;82.44;96828.88;4992009;28;20041;-73
2024/01/15 09:09:24;;;;;;;34.70;25.38;;;;;;;-0.88;82.83;96835.78;5026711;28;20111;-72
2024/01/15 09:14:34;;;;;;;35.47;24.38;;;;;;;-0.85;82.45;96830.94;4946098;23;20139;-70
2024/01/15 09:16:59;;;;;;;37.95;19.98;;;;;;;-1.08;82.45;96835.03;4894603;29;20091;-73
2024/01/15 09:19:25;;;;;;;38.17;20.30;;;;;;;-1.00;82.24;96837.44;4904940;29;20032;-72
2024/01/15 09:21:50;;;;;;;38.35;20.45;;;;;;;-1.03;82.52;96838.69;4909100;29;20560;-72
2024/01/15 09:24:15;;;;;;;37.08;23.95;;;;;;;-0.82;82.79;96837.63;4912066;29;20040;-70
2024/01/15 09:26:41;;;;;;;33.75;23.25;;;;;;;-0.88;82.46;96838.44;4909307;29;20056;-72
2024/01/15 09:29:06;;;;;;;37.80;21.25;;;;;;;-1.06;82.68;96833.81;4940424;23;20047;-71
2024/01/15 09:31:32;;;;;;;35.75;24.00;;;;;;;-1.02;82.57;96813.06;4961428;29;20035;-72
2024/01/15 09:33:59;;;;;;;36.25;24.67;;;;;;;-0.88;82.26;96835.78;4983553;28;20486;-72
2024/01/15 09:36:25;;;;;;;36.42;19.23;;;;;;;-1.01;82.68;96810.22;4966348;28;20038;-73
2024/01/15 09:38:51;;;;;;;35.90;24.38;;;;;;;-0.76;82.48;96839.44;4942247;28;20036;-72
2024/01/15 09:41:16;;;;;;;35.42;23.83;;;;;;;-0.88;82.33;96825.22;4935183;29;20045;-72
2024/01/15 09:43:42;;;;;;;35.10;23.13;;;;;;;-0.85;82.33;96820.34;4942864;29;20031;-71
2024/01/15 09:46:08;;;;;;;35.25;23.63;;;;;;;-0.88;81.88;96825.22;4938698;29;20123;-72
2024/01/15 09:48:34;;;;;;;39.28;20.35;;;;;;;-0.88;82.41;96830.50;4945659;28;20019;-72
2024/01/15 09:51:04;;;;;;;32.20;19.20;;;;;;;-0.97;82.78;96824.63;4969263;28;20039;-72
2024/01/15 09:53:29;;;;;;;31.63;23.08;;;;;;;-0.76;82.58;96818.28;4940581;29;20043;-72
2024/01/15 09:55:55;;;;;;;33.53;22.95;;;;;;;-0.65;81.60;96830.84;4938489;29;20040;-72
2024/01/15 09:58:20;;;;;;;33.90;22.83;;;;;;;-0.75;82.54;96825.22;4944524;29;20545;-72
2024/01/15 10:00:50;;;;;;;38.20;20.33;;;;;;;-0.82;82.31;96819.91;4963443;28;20026;-71
2024/01/15 10:03:15;;;;;;;37.42;23.73;;;;;;;-0.75;82.42;96807.50;4942611;28;20067;-72
2024/01/15 10:05:40;;;;;;;36.42;20.02;;;;;;;-0.67;82.03;96832.91;4927260;29;20051;-72
2024/01/15 10:08:06;;;;;;;38.22;18.45;;;;;;;-0.69;82.40;96808.50;4944537;29;20063;-73
2024/01/15 10:10:32;;;;;;;35.35;24.38;;;;;;;-0.60;81.57;96801.97;4945758;29;20030;-72
2024/01/15 10:12:58;;;;;;;33.00;22.45;;;;;;;-0.64;81.87;96799.97;4946371;28;20046;-72
2024/01/15 10:15:26;;;;;;;37.33;24.58;;;;;;;-0.55;81.88;96804.00;4939700;29;20031;-72
2024/01/15 10:17:51;;;;;;;35.17;23.95;;;;;;;-0.50;81.89;96812.94;4963675;28;20166;-73
2024/01/15 10:20:17;;;;;;;35.60;19.48;;;;;;;-0.61;81.96;96810.94;4974575;28;20023;-72
2024/01/15 10:22:43;;;;;;;33.65;23.67;;;;;;;-0.57;81.58;96785.72;4943891;29;20063;-72
2024/01/15 10:25:12;;;;;;;35.75;23.77;;;;;;;-0.41;82.22;96790.53;4963395;28;20105;-72
2024/01/15 10:27:38;;;;;;;35.35;19.35;;;;;;;-0.61;81.49;96792.44;4936223;29;20111;-72
2024/01/15 10:30:04;;;;;;;32.70;23.35;;;;;;;-0.52;82.41;96782.44;4958156;28;20594;-72
2024/01/15 10:32:29;;;;;;;32.50;22.60;;;;;;;-0.41;81.49;96785.22;4945374;28;20038;-73
2024/01/15 10:34:54;;;;;;;38.08;23.52;;;;;;;-0.41;81.84;96779.94;4933660;29;20028;-72
2024/01/15 10:37:20;;;;;;;34.97;23.08;;;;;;;-0.56;82.02;96770.66;4943848;29;20107;-72
2024/01/15 10:39:48;;;;;;;34.40;23.98;;;;;;;-0.41;81.59;96769.38;4942353;28;20491;-72
2024/01/15 10:42:14;;;;;;;34.55;20.25;;;;;;;-0.52;82.33;96772.69;4955561;28;20511;-72
2024/01/15 10:44:39;;;;;;;35.20;20.13;;;;;;;-0.53;81.77;96765.75;4955961;28;20118;-72
2024/01/15 10:47:05;;;;;;;36.72;24.33;;;;;;;-0.45;81.81;96754.13;4950101;28;20043;-72
2024/01/15 10:49:30;;;;;;;35.95;24.73;;;;;;;-0.37;82.14;96769.75;4959810;28;20038;-72
2024/01/15 10:51:56;;;;;;;35.75;25.38;;;;;;;-0.38;82.01;96763.66;4942431;29;20039;-72
2024/01/15 10:54:23;;;;;;;36.08;24.55;;;;;;;-0.31;81.85;96768.91;4936416;28;20051;-72
2024/01/15 10:56:50;;;;;;;37.15;26.52;;;;;;;-0.27;81.33;96764.81;4958060;28;20038;-72
2024/01/15 10:59:15;;;;;;;37.50;24.30;;;;;;;-0.28;81.32;96763.22;4973898;28;20022;-72
2024/01/15 11:01:42;;;;;;;41.67;26.20;;;;;;;-0.44;81.65;96727.47;4955989;28;20041;-72
2024/01/15 11:04:07;;;;;;;34.08;25.42;;;;;;;-0.20;81.64;96750.53;4960805;28;20034;-71
2024/01/15 11:06:53;;;;;;;31.55;22.77;;;;;;;-0.29;81.23;96735.13;4967666;28;20047;-72
2024/01/15 11:09:19;;;;;;;32.78;21.85;;;;;;;-0.17;81.58;96754.59;4946737;28;20046;-73
2024/01/15 11:11:46;;;;;;;33.47;18.73;;;;;;;-0.39;81.94;96745.34;4935570;29;20134;-72